Shreveport Regional Airport
KSHV : now visible

Airfield :











YOU CAN JOIN US ON...

 
LOGIN :

Register | Disclaimer

   EN    FR    IT 

 









Legend :    VFR   Marginal VFR   IFR   Intensive IFR   Very Intensive IFR
Visi :
Ceiling :
>= 8 km
>= 3000ft
5 to 8 km
1000 to 3000 ft
1500m to 5 km
500 to 1000 ft
800 to 1500m
200 to 500 ft
< 800m
< 200 ft
Symbols :   Thunderstorms  Fog  Heavy snow  Heavy precipitations  Wind > 20 kt






- Airport Elevation : 258 ft
- IATA code : SHV


KSHV - Shreveport Regional

CURRENT METAR :
  • 250856Z 10004KT 10SM -RA FEW035 BKN100 OVC120 21/19 A2981 RMK AO2 RAB0757 SLP091 P0001 60001 T02060194 50005

EXPIRED METARs :
  • 250756Z 06003KT 10SM OVC110 21/20 A2981 RMK AO2 RAB17E28 SLP091 P0000 T02060200
  • 250656Z 11004KT 10SM OVC140 21/19 A2981 RMK AO2 SLP089 T02060194
  • 250556Z 11009KT 10SM FEW005 BKN140 21/19 A2980 RMK AO2 SLP086 60005 T02060194 10217 20206 402940200 56025

TAF KSHV
Valid from the 25 at 06:00 until the 26 at 06:00 UTC


250520Z 2506/2606 VRB05KT P6SM VCSH SCT015 BKN025 OVC120
TEMPO 2508/2512 BKN015
FM251200 14005KT P6SM OVC010
TEMPO 2512/2516 BKN025
FM251600 15008KT P6SM VCTS BKN035CB
TEMPO 2517/2521 VRB15G30KT 3SM TSRA BR BKN025CB
FM252100 VRB10KT P6SM VCTS OVC035CB
TEMPO 2521/2601 VRB15G30KT 2SM TSRA BR OVC030CB
FM260100 VRB06KT P6SM VCTS OVC025CB
KZFW FIR / North America



MET'MAP, your aeronautical weather chart ! - Copyright ORBIFLY December 2007 - Disclaimer

ORBIFLY MET'MAP TEAM :

Programming & Development : Alexandra Zaïnal
Concept & original design : Baudouin d'Aumeries
Assistance for programming : Marc-Olivier Méhu
Technical & hardware support : Manuel Goepfert

Contact : metmap@orbifly.com




SOURCES & CREDITS :

   NOAA       Earth
Advisory